Skip Navigation Links
NOAA logo - Click to go to the NOAA homepage
NOAA's National Weather Service
Alaska Aviation Weather Unit
  NWS logo - Click to go to the NWS homepage
Left Navbar Graphic     08 AKDT = 16 GMT

   
NOAA is celebrating 200 years of science, service, and stewardship. Visit the NOAA 200th celebration Web site to learn more.
USA.gov is the U.S. Government's official Web portal to all Federal, state and local government Web resources and services.
Facebook
NWS on Facebook

Important Change Regarding the AAWU Web Presence

 

Over the last several months, the AAWU has been working to navigate its webpages to a nationally supported server. Security, as well as other needs, have necessitated the change.  In the process, we have made an effort to enhance the functionality of our website, as well as some of our products. As of June 20, 2017, aawu.arh.noaa.gov will be discontinued. The new AAWU web address is weather.gov/aawu. It is now live and will run in-parallel with the old site until it is discontinued. Please send any feedback or questions regarding the new webpages to nws.ar.aawu.webauthors@noaa.gov.  Thank you for your patience during this time of transition.
AAWU Home :: Display TAF Add Bookmark
TAF PAGS 231510Z 2315/2412 32006KT P6SM SCT006 BKN035
      TEMPO 2315/2318 BKN006
     FM231900 26010KT P6SM FEW020 SCT050
      AMD LTD TO CLD VIS AND WIND=
SPECI PAGS 231053Z AUTO 31005KT 10SM OVC004 08/07 A2988 RMK AO2=

METAR PAGS 231156Z AUTO 00000KT 10SM OVC004 08/07 A2987 RMK AO2 SLP114
     70004 T00780067 10089 20072 56012=

SPECI PAGS 231236Z AUTO 35005KT 10SM OVC006 08/07 A2985 RMK AO2=

METAR PAGS 231356Z AUTO 25005KT 10SM OVC006 07/07 A2985 RMK AO2 SLP107
     T00720067=

METAR PAGS 231456Z AUTO 31004KT 10SM OVC006 08/07 A2985 RMK AO2 SLP108
     T00780067 55006=

METAR PAGS 231556Z AUTO 27005KT 10SM OVC008 08/07 A2985 RMK AO2 SLP107
     T00830067=

SPECI PAGS 231637Z AUTO 00000KT 10SM BKN010 OVC110 09/06 A2984 RMK
     AO2=


NOAA's National Weather Service
Alaska Aviation Weather Unit
6930 Sand Lake Road
Anchorage, AK 99502-1845
Disclaimer
Credits
Glossary
Privacy Policy
About Us
Career Opportunities
Contact AAWU Internet Services Site last modified: April, 17th 2012